createdAt,value
2017-12-10T00:02:20.860Z,4.25
2017-12-10T00:04:48.341Z,3.35
2017-12-10T00:07:15.919Z,3.85
2017-12-10T00:09:43.404Z,4.00
2017-12-10T00:12:10.885Z,3.70
2017-12-10T00:14:38.381Z,3.60
2017-12-10T00:17:05.857Z,3.40
2017-12-10T00:19:33.362Z,4.28
2017-12-10T00:22:01.613Z,4.53
2017-12-10T00:24:29.088Z,4.32
2017-12-10T00:26:56.582Z,3.53
2017-12-10T00:29:24.066Z,3.33
2017-12-10T00:31:51.585Z,3.65
2017-12-10T00:34:19.838Z,5.05
2017-12-10T00:36:47.326Z,3.47
2017-12-10T00:39:14.830Z,4.25
2017-12-10T00:41:42.322Z,4.07
2017-12-10T00:44:09.826Z,2.80
2017-12-10T00:46:37.308Z,3.72
2017-12-10T00:49:04.798Z,4.97
2017-12-10T00:51:32.290Z,3.33
2017-12-10T00:53:59.773Z,4.25
2017-12-10T00:56:27.274Z,3.87
2017-12-10T00:58:55.526Z,3.58
2017-12-10T01:01:23.005Z,4.28
2017-12-10T01:03:51.261Z,3.37
2017-12-10T01:06:19.538Z,4.45
2017-12-10T01:08:47.078Z,3.10
2017-12-10T01:11:14.557Z,3.15
2017-12-10T01:13:42.044Z,4.57
2017-12-10T01:16:10.314Z,4.90
2017-12-10T01:18:38.576Z,4.12
2017-12-10T01:21:06.157Z,4.60
2017-12-10T01:23:34.405Z,4.35
2017-12-10T01:26:02.678Z,3.58
2017-12-10T01:28:30.304Z,4.15
2017-12-10T01:30:57.831Z,4.15
2017-12-10T01:33:26.101Z,3.08
2017-12-10T01:35:54.355Z,4.15
2017-12-10T01:38:21.844Z,3.60
2017-12-10T01:40:50.101Z,4.37
2017-12-10T01:43:18.367Z,4.47
2017-12-10T01:45:45.986Z,4.90
2017-12-10T01:48:13.474Z,4.75
2017-12-10T01:50:40.969Z,4.15
2017-12-10T01:53:09.246Z,4.37
2017-12-10T01:55:36.801Z,5.10
2017-12-10T01:58:04.335Z,4.30
2017-12-10T02:00:31.817Z,3.40
2017-12-10T02:03:00.116Z,3.97
2017-12-10T02:05:27.653Z,4.47
2017-12-10T02:07:55.934Z,3.92
2017-12-10T02:10:23.443Z,4.53
2017-12-10T02:12:50.921Z,3.97
2017-12-10T02:15:18.438Z,4.30
2017-12-10T02:17:45.933Z,4.28
2017-12-10T02:20:13.438Z,4.55
2017-12-10T02:22:40.996Z,4.25
2017-12-10T02:25:08.534Z,3.80
2017-12-10T02:27:36.796Z,3.10
2017-12-10T02:30:04.302Z,3.00
2017-12-10T02:32:31.800Z,3.80
2017-12-10T02:34:59.292Z,4.57
2017-12-10T02:37:27.590Z,3.55
2017-12-10T02:39:55.082Z,3.83
2017-12-10T02:42:22.566Z,3.70
2017-12-10T02:44:50.079Z,3.42
2017-12-10T02:47:17.597Z,3.80
2017-12-10T02:49:45.850Z,4.12
2017-12-10T02:52:14.169Z,3.10
2017-12-10T02:54:41.663Z,3.65
2017-12-10T02:57:09.159Z,5.30
2017-12-10T02:59:37.430Z,3.30
2017-12-10T03:02:05.735Z,4.28
2017-12-10T03:04:33.256Z,4.62
2017-12-10T03:07:00.772Z,5.30
2017-12-10T03:09:28.258Z,3.97
2017-12-10T03:11:55.782Z,3.37
2017-12-10T03:14:23.341Z,4.32
2017-12-10T03:16:50.837Z,4.10
2017-12-10T03:19:18.346Z,4.55
2017-12-10T03:21:45.835Z,4.30
2017-12-10T03:24:13.322Z,5.10
2017-12-10T03:26:40.840Z,3.90
2017-12-10T03:29:08.335Z,4.62
2017-12-10T03:31:35.833Z,5.50
2017-12-10T03:34:03.357Z,5.28
2017-12-10T03:36:30.839Z,4.55
2017-12-10T03:38:59.095Z,4.12
2017-12-10T03:41:26.612Z,4.85
2017-12-10T03:43:54.098Z,4.62
2017-12-10T03:46:21.683Z,3.75
2017-12-10T03:48:49.963Z,4.68
2017-12-10T03:51:18.238Z,5.07
2017-12-10T03:53:46.490Z,6.07
2017-12-10T03:56:14.196Z,4.00
2017-12-10T03:58:41.746Z,4.25
2017-12-10T04:01:09.227Z,3.35
2017-12-10T04:03:36.737Z,4.00
2017-12-10T04:06:04.240Z,4.30
2017-12-10T04:08:31.736Z,4.35
2017-12-10T04:10:59.252Z,4.72
2017-12-10T04:13:26.805Z,4.10
2017-12-10T04:15:54.325Z,3.30
2017-12-10T04:18:21.960Z,4.40
2017-12-10T04:20:49.472Z,3.28
2017-12-10T04:23:17.750Z,3.60
2017-12-10T04:25:46.007Z,3.22
2017-12-10T04:28:13.529Z,3.83
2017-12-10T04:30:41.036Z,3.78
2017-12-10T04:33:08.611Z,4.30
2017-12-10T04:35:36.100Z,3.37
2017-12-10T04:38:03.602Z,2.72
2017-12-10T04:40:31.921Z,3.10
2017-12-10T04:42:59.468Z,3.78
2017-12-10T04:45:27.093Z,4.55
2017-12-10T04:47:54.589Z,3.75
2017-12-10T04:50:22.214Z,3.70
2017-12-10T04:52:50.465Z,3.25
2017-12-10T04:55:17.937Z,4.28
2017-12-10T04:57:45.437Z,3.62
2017-12-10T05:00:12.951Z,4.40
2017-12-10T05:02:40.446Z,3.55
2017-12-10T05:05:07.969Z,3.53
2017-12-10T05:07:35.572Z,3.92
2017-12-10T05:10:03.068Z,4.60
2017-12-10T05:12:30.560Z,3.37
2017-12-10T05:14:58.805Z,3.47
2017-12-10T05:17:26.297Z,4.00
2017-12-10T05:19:54.556Z,2.97
2017-12-10T05:22:22.080Z,3.05
2017-12-10T05:24:49.576Z,2.58
2017-12-10T05:27:17.142Z,3.42
2017-12-10T05:29:45.442Z,3.75
2017-12-10T05:32:12.939Z,3.10
2017-12-10T05:34:40.444Z,2.47
2017-12-10T05:37:08.717Z,3.30
2017-12-10T05:39:36.969Z,3.33
2017-12-10T05:42:04.487Z,2.92
2017-12-10T05:44:31.980Z,2.75
2017-12-10T05:46:59.476Z,3.53
2017-12-10T05:49:27.750Z,3.87
2017-12-10T05:51:56.007Z,3.45
2017-12-10T05:54:23.481Z,3.75
2017-12-10T05:56:51.763Z,4.10
2017-12-10T05:59:20.142Z,3.40
2017-12-10T06:01:48.385Z,3.50
2017-12-10T06:04:15.905Z,3.78
2017-12-10T06:06:43.395Z,3.62
2017-12-10T06:09:10.895Z,4.12
2017-12-10T06:11:38.418Z,3.87
2017-12-10T06:14:05.916Z,3.15
2017-12-10T06:16:33.414Z,3.05
2017-12-10T06:19:00.910Z,4.05
2017-12-10T06:21:29.167Z,4.07
2017-12-10T06:23:56.680Z,4.55
2017-12-10T06:26:24.178Z,2.97
2017-12-10T06:28:51.705Z,3.05
2017-12-10T06:31:19.204Z,3.10
2017-12-10T06:33:46.699Z,3.22
2017-12-10T06:36:14.204Z,3.70
2017-12-10T06:38:41.691Z,3.83
2017-12-10T06:41:09.963Z,4.47
2017-12-10T06:43:38.216Z,3.92
2017-12-10T06:46:05.720Z,3.65
2017-12-10T06:48:33.225Z,3.60
2017-12-10T06:51:00.702Z,3.40
2017-12-10T06:53:28.228Z,3.90
2017-12-10T06:55:55.727Z,2.78
2017-12-10T06:58:23.974Z,3.22
2017-12-10T07:00:51.501Z,3.15
2017-12-10T07:03:18.996Z,3.25
2017-12-10T07:05:46.478Z,3.70
2017-12-10T07:08:14.769Z,8.45
2017-12-10T07:10:42.355Z,9.77
2017-12-10T07:13:10.581Z,19.75
2017-12-10T07:15:38.082Z,3.50
2017-12-10T07:18:05.561Z,4.07
2017-12-10T07:20:33.044Z,2.55
2017-12-10T07:23:00.545Z,2.85
2017-12-10T07:25:28.127Z,3.87
2017-12-10T07:27:55.610Z,4.00
2017-12-10T07:30:23.138Z,3.87
2017-12-10T07:32:50.626Z,3.22
2017-12-10T07:35:18.110Z,2.60
2017-12-10T07:37:46.399Z,2.72
2017-12-10T07:40:14.637Z,3.72
2017-12-10T07:42:42.134Z,2.95
2017-12-10T07:45:10.402Z,2.28
2017-12-10T07:47:38.670Z,2.58
2017-12-10T07:50:06.173Z,2.53
2017-12-10T07:52:33.678Z,3.05
2017-12-10T07:55:01.181Z,2.60
2017-12-10T07:57:28.657Z,3.12
2017-12-10T07:59:56.170Z,3.33
2017-12-10T08:02:24.422Z,2.65
2017-12-10T08:04:51.931Z,3.10
2017-12-10T08:07:19.415Z,3.58
2017-12-10T08:09:47.278Z,3.37
2017-12-10T08:12:14.810Z,3.47
2017-12-10T08:14:42.322Z,4.30
2017-12-10T08:17:09.805Z,3.70
2017-12-10T08:19:38.048Z,4.47
2017-12-10T08:22:05.552Z,3.05
2017-12-10T08:24:33.057Z,3.15
2017-12-10T08:27:00.580Z,4.78
2017-12-10T08:29:28.070Z,4.05
2017-12-10T08:31:55.641Z,4.25
2017-12-10T08:34:23.264Z,3.70
2017-12-10T08:36:50.749Z,3.60
2017-12-10T08:39:18.234Z,6.55
2017-12-10T08:41:45.748Z,3.60
2017-12-10T08:44:13.297Z,3.90
2017-12-10T08:46:40.793Z,5.12
2017-12-10T08:49:08.288Z,4.10
2017-12-10T08:51:36.572Z,4.32
2017-12-10T08:54:04.855Z,4.35
2017-12-10T08:56:32.380Z,4.65
2017-12-10T08:58:59.877Z,3.10
2017-12-10T09:01:27.431Z,4.78
2017-12-10T09:03:54.939Z,4.10
2017-12-10T09:06:22.422Z,5.43
2017-12-10T09:08:49.920Z,4.50
2017-12-10T09:11:17.420Z,4.60
2017-12-10T09:13:44.910Z,4.65
2017-12-10T09:16:13.162Z,4.15
2017-12-10T09:18:40.776Z,5.72
2017-12-10T09:21:08.266Z,4.10
2017-12-10T09:23:35.756Z,2.85
2017-12-10T09:26:03.404Z,2.35
2017-12-10T09:28:30.876Z,3.37
2017-12-10T09:30:58.485Z,4.45
2017-12-10T09:33:26.012Z,2.72
2017-12-10T09:35:54.258Z,2.75
2017-12-10T09:38:21.742Z,3.03
2017-12-10T09:40:50.065Z,1.90
2017-12-10T09:43:17.541Z,2.40
2017-12-10T09:45:46.786Z,2.20
2017-12-10T09:48:15.050Z,2.60
2017-12-10T09:50:43.324Z,2.60
2017-12-10T09:53:10.826Z,2.72
2017-12-10T09:55:38.361Z,9.90
2017-12-10T09:58:06.641Z,9.93
2017-12-10T10:00:34.885Z,7.50
2017-12-10T10:03:02.501Z,5.90
2017-12-10T10:05:29.991Z,3.90
2017-12-10T10:07:57.487Z,4.93
2017-12-10T10:10:25.754Z,6.75
2017-12-10T10:12:53.246Z,9.50
2017-12-10T10:15:20.768Z,8.77
2017-12-10T10:17:48.257Z,7.35
2017-12-10T10:20:15.829Z,5.03
2017-12-10T10:22:43.373Z,5.40
2017-12-10T10:25:10.893Z,10.85
2017-12-10T10:27:38.392Z,8.80
2017-12-10T10:30:05.897Z,6.10
2017-12-10T10:32:33.386Z,6.05
2017-12-10T10:35:01.642Z,6.35
2017-12-10T10:37:29.166Z,4.25
2017-12-10T10:39:56.659Z,5.43
2017-12-10T10:42:24.142Z,4.50
2017-12-10T10:44:52.432Z,3.60
2017-12-10T10:47:20.696Z,3.90
2017-12-10T10:49:48.947Z,2.58
2017-12-10T10:52:16.466Z,3.70
2017-12-10T10:54:44.025Z,5.75
2017-12-10T10:57:12.237Z,4.40
2017-12-10T10:59:39.742Z,4.80
2017-12-10T11:02:07.247Z,3.80
2017-12-10T11:04:34.887Z,7.05
2017-12-10T11:07:02.390Z,4.78
2017-12-10T11:09:30.656Z,6.40
2017-12-10T11:11:58.188Z,17.33
2017-12-10T11:14:25.673Z,18.05
2017-12-10T11:16:53.166Z,6.85
2017-12-10T11:19:20.731Z,4.70
2017-12-10T11:21:48.220Z,3.70
2017-12-10T11:24:15.701Z,4.72
2017-12-10T11:26:43.213Z,3.65
2017-12-10T11:29:10.699Z,3.92
2017-12-10T11:31:38.199Z,7.97
2017-12-10T11:34:06.492Z,29.37
2017-12-10T11:36:33.979Z,13.20
2017-12-10T11:39:01.461Z,7.05
2017-12-10T11:41:28.963Z,6.22
2017-12-10T11:43:56.445Z,7.85
2017-12-10T11:46:23.951Z,9.93
2017-12-10T11:48:51.442Z,8.35
2017-12-10T11:51:18.946Z,7.90
2017-12-10T11:53:46.586Z,7.62
2017-12-10T11:56:14.086Z,5.80
2017-12-10T11:58:41.569Z,6.53
2017-12-10T12:01:09.837Z,6.40
2017-12-10T12:03:38.351Z,5.87
2017-12-10T12:06:05.865Z,5.70
2017-12-10T12:08:33.408Z,6.10
2017-12-10T12:11:00.916Z,5.70
2017-12-10T12:13:28.590Z,4.25
2017-12-10T12:15:56.087Z,3.70
2017-12-10T12:18:23.599Z,4.22
2017-12-10T12:20:51.188Z,3.10
2017-12-10T12:23:18.699Z,4.07
2017-12-10T12:25:47.208Z,3.85
2017-12-10T12:28:14.704Z,2.97
2017-12-10T12:30:42.223Z,4.68
2017-12-10T12:33:09.719Z,3.25
2017-12-10T12:35:37.196Z,3.87
2017-12-10T12:38:04.711Z,2.40
2017-12-10T12:40:32.199Z,2.80
2017-12-10T12:42:59.700Z,4.05
2017-12-10T12:45:27.225Z,3.15
2017-12-10T12:47:54.715Z,3.37
2017-12-10T12:50:22.210Z,5.20
2017-12-10T12:52:49.745Z,9.48
2017-12-10T12:55:17.252Z,12.93
2017-12-10T12:57:44.795Z,16.45
2017-12-10T13:00:12.261Z,12.80
2017-12-10T13:02:39.766Z,21.02
2017-12-10T13:05:07.265Z,8.75
2017-12-10T13:07:34.757Z,8.57
2017-12-10T13:10:02.270Z,24.10
2017-12-10T13:12:29.758Z,11.25
2017-12-10T13:14:57.250Z,16.30
2017-12-10T13:17:25.543Z,29.77
2017-12-10T13:19:53.116Z,17.08
2017-12-10T13:22:20.630Z,11.38
2017-12-10T13:24:48.943Z,4.93
2017-12-10T13:27:16.497Z,3.45
2017-12-10T13:29:44.731Z,2.78
2017-12-10T13:32:12.226Z,3.55
2017-12-10T13:34:39.788Z,3.37
2017-12-10T13:37:07.295Z,2.70
2017-12-10T13:39:34.787Z,2.83
2017-12-10T13:42:03.186Z,3.22
2017-12-10T13:44:30.678Z,3.50
2017-12-10T13:46:58.304Z,2.80
2017-12-10T13:49:25.854Z,2.62
2017-12-10T13:51:53.386Z,3.80
2017-12-10T13:54:20.889Z,3.08
2017-12-10T13:56:48.396Z,3.22
2017-12-10T13:59:15.887Z,2.62
2017-12-10T14:01:44.179Z,4.95
2017-12-10T14:04:11.667Z,5.78
2017-12-10T14:06:39.171Z,7.22
2017-12-10T14:09:07.461Z,10.82
2017-12-10T14:11:34.972Z,12.50
2017-12-10T14:14:02.491Z,10.55
2017-12-10T14:16:30.018Z,11.05
2017-12-10T14:18:58.409Z,6.32
2017-12-10T14:21:25.906Z,5.75
2017-12-10T14:23:53.450Z,9.60
2017-12-10T14:26:20.964Z,14.13
2017-12-10T14:28:49.250Z,11.23
2017-12-10T14:31:17.510Z,13.32
2017-12-10T14:33:44.997Z,6.95
2017-12-10T14:36:12.509Z,3.12
2017-12-10T14:38:40.024Z,2.65
2017-12-10T14:41:07.514Z,1.62
2017-12-10T14:43:35.031Z,1.70
2017-12-10T14:46:02.528Z,1.95
2017-12-10T14:48:30.042Z,1.30
2017-12-10T14:50:57.539Z,1.65
2017-12-10T14:53:25.040Z,1.67
2017-12-10T14:55:52.551Z,1.80
2017-12-10T14:58:20.038Z,7.05
2017-12-10T15:00:47.528Z,12.50
2017-12-10T15:03:15.819Z,17.83
2017-12-10T15:05:43.396Z,10.45
2017-12-10T15:08:10.885Z,13.38
2017-12-10T15:10:38.430Z,8.50
2017-12-10T15:13:05.941Z,3.97
2017-12-10T15:15:33.571Z,1.85
2017-12-10T15:18:01.073Z,1.73
2017-12-10T15:20:28.633Z,1.80
2017-12-10T15:22:56.881Z,2.83
2017-12-10T15:25:24.442Z,2.55
2017-12-10T15:27:51.927Z,3.55
2017-12-10T15:30:19.465Z,6.87
2017-12-10T15:32:46.973Z,4.82
2017-12-10T15:35:14.477Z,2.10
2017-12-10T15:37:41.980Z,2.78
2017-12-10T15:40:10.257Z,2.70
2017-12-10T15:42:38.554Z,2.08
2017-12-10T15:45:06.798Z,2.03
2017-12-10T15:47:34.336Z,2.20
2017-12-10T15:50:01.830Z,2.37
2017-12-10T15:52:29.343Z,1.12
2017-12-10T15:54:56.868Z,2.00
2017-12-10T15:57:24.380Z,1.25
2017-12-10T15:59:51.876Z,1.92
2017-12-10T16:02:19.408Z,1.02
2017-12-10T16:04:46.903Z,2.15
2017-12-10T16:07:15.889Z,1.45
2017-12-10T16:09:43.610Z,1.80
2017-12-10T16:12:11.113Z,1.77
2017-12-10T16:14:38.620Z,1.55
2017-12-10T16:17:06.189Z,2.20
2017-12-10T16:19:33.730Z,1.23
2017-12-10T16:22:01.214Z,1.10
2017-12-10T16:24:28.748Z,1.77
2017-12-10T16:26:56.236Z,1.50
2017-12-10T16:29:23.770Z,1.50
2017-12-10T16:31:51.296Z,1.77
2017-12-10T16:34:19.907Z,1.05
2017-12-10T16:36:47.433Z,2.10
2017-12-10T16:39:15.729Z,1.55
2017-12-10T16:41:44.447Z,1.33
2017-12-10T16:44:12.605Z,2.45
2017-12-10T16:46:40.156Z,1.45
2017-12-10T16:49:07.968Z,1.73
2017-12-10T16:51:35.475Z,1.20
2017-12-10T16:54:03.040Z,1.85
2017-12-10T16:56:30.581Z,1.48
2017-12-10T16:58:58.849Z,1.62
2017-12-10T17:01:26.385Z,1.90
2017-12-10T17:03:53.865Z,1.30
2017-12-10T17:06:21.474Z,2.28
2017-12-10T17:08:49.118Z,2.47
2017-12-10T17:11:16.606Z,2.03
2017-12-10T17:13:44.137Z,2.37
2017-12-10T17:16:11.645Z,2.78
2017-12-10T17:18:39.173Z,2.75
2017-12-10T17:21:06.657Z,2.55
2017-12-10T17:23:34.184Z,5.75
2017-12-10T17:26:01.810Z,6.35
2017-12-10T17:28:29.334Z,6.37
2017-12-10T17:30:56.827Z,3.58
2017-12-10T17:33:24.330Z,4.50
2017-12-10T17:35:51.843Z,4.78
2017-12-10T17:38:19.325Z,3.75
2017-12-10T17:40:46.849Z,5.20
2017-12-10T17:43:15.108Z,6.82
2017-12-10T17:45:42.710Z,2.87
2017-12-10T17:48:10.242Z,5.90
2017-12-10T17:50:38.495Z,6.20
2017-12-10T17:53:05.996Z,7.35
2017-12-10T17:55:33.510Z,7.05
2017-12-10T17:58:00.991Z,5.03
2017-12-10T18:00:29.294Z,3.10
2017-12-10T18:02:56.878Z,3.20
2017-12-10T18:05:24.432Z,4.35
2017-12-10T18:07:51.918Z,4.00
2017-12-10T18:10:19.461Z,4.25
2017-12-10T18:12:46.966Z,3.42
2017-12-10T18:15:14.553Z,3.30
2017-12-10T18:17:42.040Z,3.00
2017-12-10T18:20:09.567Z,2.67
2017-12-10T18:22:37.093Z,2.90
2017-12-10T18:25:05.376Z,3.12
2017-12-10T18:27:33.621Z,2.95
2017-12-10T18:30:01.146Z,4.62
2017-12-10T18:32:28.644Z,2.95
2017-12-10T18:34:56.165Z,3.80
2017-12-10T18:37:23.645Z,3.22
2017-12-10T18:39:51.161Z,2.20
2017-12-10T18:42:18.646Z,3.20
2017-12-10T18:44:46.148Z,3.40
2017-12-10T18:47:14.440Z,3.20
2017-12-10T18:49:42.005Z,2.40
2017-12-10T18:52:09.505Z,3.10
2017-12-10T18:54:37.016Z,3.37
2017-12-10T18:57:04.523Z,3.87
2017-12-10T18:59:32.085Z,4.10
2017-12-10T19:01:59.581Z,2.92
2017-12-10T19:04:27.842Z,3.05
2017-12-10T19:06:56.097Z,2.55
2017-12-10T19:09:23.611Z,3.55
2017-12-10T19:11:51.156Z,3.08
2017-12-10T19:14:18.647Z,3.33
2017-12-10T19:16:46.158Z,3.42
2017-12-10T19:19:14.434Z,4.15
2017-12-10T19:21:42.693Z,3.08
2017-12-10T19:24:11.732Z,3.28
2017-12-10T19:26:39.301Z,2.72
2017-12-10T19:29:06.786Z,3.20
2017-12-10T19:31:34.310Z,3.28
2017-12-10T19:34:01.802Z,4.47
2017-12-10T19:36:29.338Z,3.45
2017-12-10T19:38:56.841Z,2.95
2017-12-10T19:41:25.106Z,2.87
2017-12-10T19:43:52.595Z,4.12
2017-12-10T19:46:20.894Z,3.05
2017-12-10T19:48:48.391Z,3.05
2017-12-10T19:51:15.869Z,2.28
2017-12-10T19:53:43.473Z,3.22
2017-12-10T19:56:10.957Z,2.60
2017-12-10T19:58:38.437Z,2.85
2017-12-10T20:01:05.968Z,2.78
2017-12-10T20:03:33.468Z,2.53
2017-12-10T20:06:01.761Z,4.35
2017-12-10T20:08:29.344Z,2.50
2017-12-10T20:10:56.844Z,2.65
2017-12-10T20:13:24.383Z,2.28
2017-12-10T20:15:51.865Z,2.17
2017-12-10T20:18:19.393Z,2.20
2017-12-10T20:20:46.915Z,2.33
2017-12-10T20:23:14.426Z,3.22
2017-12-10T20:25:41.932Z,2.87
2017-12-10T20:28:09.478Z,3.50
2017-12-10T20:30:37.753Z,2.25
2017-12-10T20:33:06.031Z,2.50
2017-12-10T20:35:34.334Z,2.15
2017-12-10T20:38:01.856Z,2.70
2017-12-10T20:40:30.138Z,3.15
2017-12-10T20:42:58.407Z,2.47
2017-12-10T20:45:26.695Z,3.35
2017-12-10T20:47:54.993Z,4.15
2017-12-10T20:50:22.512Z,3.97
2017-12-10T20:52:50.041Z,3.67
2017-12-10T20:55:17.553Z,3.22
2017-12-10T20:57:45.035Z,4.00
2017-12-10T21:00:12.533Z,3.03
2017-12-10T21:02:40.068Z,3.70
2017-12-10T21:05:07.601Z,3.08
2017-12-10T21:07:35.120Z,3.03
2017-12-10T21:10:03.399Z,3.47
2017-12-10T21:12:31.659Z,3.17
2017-12-10T21:14:59.186Z,2.50
2017-12-10T21:17:26.700Z,4.03
2017-12-10T21:19:54.987Z,2.30
2017-12-10T21:22:22.508Z,2.00
2017-12-10T21:24:50.062Z,3.00
2017-12-10T21:27:17.563Z,2.45
2017-12-10T21:29:45.069Z,3.05
2017-12-10T21:32:12.568Z,2.37
2017-12-10T21:34:40.817Z,3.10
2017-12-10T21:37:09.884Z,3.00
2017-12-10T21:39:37.383Z,2.50
2017-12-10T21:42:04.934Z,2.90
2017-12-10T21:44:33.235Z,2.10
2017-12-10T21:47:01.501Z,1.45
2017-12-10T21:49:29.789Z,1.00
2017-12-10T21:51:58.060Z,2.12
2017-12-10T21:54:26.302Z,1.48
2017-12-10T21:56:53.791Z,1.55
2017-12-10T21:59:21.358Z,1.00
2017-12-10T22:01:48.847Z,1.48
2017-12-10T22:04:16.343Z,1.20
2017-12-10T22:06:43.879Z,1.10
2017-12-10T22:09:11.351Z,1.15
2017-12-10T22:11:38.852Z,0.98
2017-12-10T22:14:06.372Z,1.00
2017-12-10T22:16:33.854Z,1.02
2017-12-10T22:19:02.119Z,1.25
2017-12-10T22:21:29.730Z,0.90
2017-12-10T22:23:57.263Z,1.20
2017-12-10T22:26:24.776Z,1.87
2017-12-10T22:28:52.291Z,1.58
2017-12-10T22:31:19.777Z,1.37
2017-12-10T22:33:47.286Z,1.40
2017-12-10T22:36:15.670Z,1.85
2017-12-10T22:38:43.149Z,1.52
2017-12-10T22:41:10.652Z,1.67
2017-12-10T22:43:38.186Z,1.80
2017-12-10T22:46:05.674Z,1.80
2017-12-10T22:48:33.154Z,1.77
2017-12-10T22:51:01.439Z,2.30
2017-12-10T22:53:28.918Z,1.80
2017-12-10T22:55:56.424Z,2.20
2017-12-10T22:58:24.028Z,1.42
2017-12-10T23:00:51.527Z,2.47
2017-12-10T23:03:19.006Z,2.25
2017-12-10T23:05:47.287Z,2.37
2017-12-10T23:08:15.551Z,2.20
2017-12-10T23:10:43.038Z,2.33
2017-12-10T23:13:10.541Z,2.78
2017-12-10T23:15:38.059Z,2.55
2017-12-10T23:18:06.281Z,3.00
2017-12-10T23:20:34.676Z,2.97
2017-12-10T23:23:03.656Z,2.65
2017-12-10T23:25:31.143Z,2.75
2017-12-10T23:27:59.419Z,2.62
2017-12-10T23:30:26.931Z,2.92
2017-12-10T23:32:54.571Z,2.40
2017-12-10T23:35:22.101Z,2.87
2017-12-10T23:37:50.351Z,2.53
2017-12-10T23:40:17.945Z,3.47
2017-12-10T23:42:45.461Z,3.22
2017-12-10T23:45:12.960Z,3.28
2017-12-10T23:47:40.515Z,2.90
2017-12-10T23:50:08.784Z,3.10
2017-12-10T23:52:37.048Z,3.55
2017-12-10T23:55:05.309Z,3.15
2017-12-10T23:57:32.809Z,5.00
